createdAt,value
2019-05-26T00:00:01.328Z,99.99
2019-05-26T00:01:01.256Z,99.99
2019-05-26T00:02:01.164Z,99.99
2019-05-26T00:03:01.090Z,99.99
2019-05-26T00:04:01.003Z,99.99
2019-05-26T00:05:00.928Z,99.99
2019-05-26T00:06:00.840Z,99.99
2019-05-26T00:07:00.765Z,99.99
2019-05-26T00:08:00.686Z,99.99
2019-05-26T00:09:00.605Z,99.99
2019-05-26T00:10:00.520Z,99.99
2019-05-26T00:11:00.434Z,99.99
2019-05-26T00:12:00.353Z,99.99
2019-05-26T00:13:00.266Z,99.99
2019-05-26T00:14:00.205Z,99.99
2019-05-26T00:15:00.109Z,99.99
2019-05-26T00:16:00.036Z,99.99
2019-05-26T00:16:59.941Z,99.99
2019-05-26T00:17:59.865Z,99.99
2019-05-26T00:18:59.780Z,99.99
2019-05-26T00:19:59.704Z,99.99
2019-05-26T00:20:59.616Z,99.99
2019-05-26T00:21:59.542Z,99.99
2019-05-26T00:22:59.454Z,99.99
2019-05-26T00:23:59.380Z,99.99
2019-05-26T00:24:59.295Z,99.99
2019-05-26T00:25:59.205Z,99.99
2019-05-26T00:26:59.130Z,99.99
2019-05-26T00:27:59.042Z,99.99
2019-05-26T00:28:58.968Z,99.99
2019-05-26T00:29:58.892Z,99.99
2019-05-26T00:30:58.820Z,99.99
2019-05-26T00:31:58.731Z,99.99
2019-05-26T00:32:58.643Z,99.99
2019-05-26T00:33:58.623Z,99.99
2019-05-26T00:34:58.481Z,99.99
2019-05-26T00:35:58.392Z,99.99
2019-05-26T00:36:58.317Z,99.99
2019-05-26T00:37:58.231Z,99.99
2019-05-26T00:38:58.144Z,99.99
2019-05-26T00:39:58.068Z,99.99
2019-05-26T00:40:57.981Z,99.99
2019-05-26T00:41:57.915Z,99.99
2019-05-26T00:42:57.820Z,99.99
2019-05-26T00:43:57.743Z,99.99
2019-05-26T00:44:57.705Z,99.99
2019-05-26T00:45:57.582Z,99.99
2019-05-26T00:46:57.496Z,99.99
2019-05-26T00:47:57.418Z,99.99
2019-05-26T00:48:57.333Z,99.99
2019-05-26T00:49:57.258Z,99.99
2019-05-26T00:50:57.170Z,99.99
2019-05-26T00:51:57.094Z,99.99
2019-05-26T00:52:57.122Z,99.99
2019-05-26T00:53:56.920Z,99.99
2019-05-26T00:54:56.846Z,99.99
2019-05-26T00:55:56.769Z,99.99
2019-05-26T00:56:56.684Z,99.99
2019-05-26T00:57:56.608Z,99.99
2019-05-26T00:58:56.521Z,99.99
2019-05-26T00:59:56.433Z,99.99
2019-05-26T01:00:56.358Z,99.99
2019-05-26T01:01:56.554Z,99.99
2019-05-26T01:02:56.200Z,99.99
2019-05-26T01:03:56.109Z,99.99
2019-05-26T01:04:56.024Z,99.99
2019-05-26T01:05:55.946Z,99.99
2019-05-26T01:06:55.926Z,99.99
2019-05-26T01:08:05.882Z,99.99
2019-05-26T01:08:55.697Z,99.99
2019-05-26T01:09:55.622Z,99.99
2019-05-26T01:10:55.535Z,99.99
2019-05-26T01:11:55.459Z,99.99
2019-05-26T01:12:55.371Z,99.99
2019-05-26T01:13:55.296Z,99.99
2019-05-26T01:14:55.213Z,99.99
2019-05-26T01:15:55.122Z,99.99
2019-05-26T01:16:55.981Z,99.99
2019-05-26T01:17:54.961Z,99.99
2019-05-26T01:18:54.889Z,99.99
2019-05-26T01:19:54.797Z,99.99
2019-05-26T01:20:54.723Z,99.99
2019-05-26T01:21:54.635Z,99.99
2019-05-26T01:22:54.563Z,99.99
2019-05-26T01:23:54.473Z,99.99
2019-05-26T01:24:54.387Z,99.99
2019-05-26T01:25:54.321Z,99.99
2019-05-26T01:26:54.223Z,99.99
2019-05-26T01:27:54.147Z,99.99
2019-05-26T01:28:54.063Z,99.99
2019-05-26T01:29:53.988Z,99.99
2019-05-26T01:30:53.897Z,99.99
2019-05-26T01:31:53.824Z,99.99
2019-05-26T01:32:53.737Z,99.99
2019-05-26T01:33:53.649Z,99.99
2019-05-26T01:34:53.574Z,99.99
2019-05-26T01:35:53.488Z,99.99
2019-05-26T01:36:53.412Z,99.99
2019-05-26T01:37:53.324Z,99.99
2019-05-26T01:38:53.250Z,99.99
2019-05-26T01:39:53.165Z,99.99
2019-05-26T01:40:53.079Z,99.99
2019-05-26T01:41:52.999Z,99.99
2019-05-26T01:42:52.916Z,99.99
2019-05-26T01:43:52.837Z,99.99
2019-05-26T01:44:52.753Z,99.99
2019-05-26T01:45:52.676Z,99.99
2019-05-26T01:46:52.588Z,99.99
2019-05-26T01:47:52.505Z,99.99
2019-05-26T01:48:52.425Z,99.99
2019-05-26T01:49:52.349Z,99.99
2019-05-26T01:50:52.263Z,99.99
2019-05-26T01:51:52.180Z,99.99
2019-05-26T01:52:52.102Z,99.99
2019-05-26T01:53:52.014Z,99.99
2019-05-26T01:54:51.927Z,99.99
2019-05-26T01:55:51.850Z,99.99
2019-05-26T01:56:51.767Z,99.99
2019-05-26T01:57:51.689Z,99.99
2019-05-26T01:58:51.604Z,99.99
2019-05-26T01:59:51.527Z,99.99
2019-05-26T02:00:51.441Z,99.99
2019-05-26T02:01:51.353Z,99.99
2019-05-26T02:02:51.277Z,99.99
2019-05-26T02:03:51.193Z,99.99
2019-05-26T02:04:51.125Z,99.99
2019-05-26T02:05:51.040Z,99.99
2019-05-26T02:06:50.951Z,99.99
2019-05-26T02:07:50.869Z,99.99
2019-05-26T02:08:50.793Z,99.99
2019-05-26T02:09:50.706Z,99.99
2019-05-26T02:10:50.616Z,99.99
2019-05-26T02:11:50.540Z,99.99
2019-05-26T02:12:50.452Z,99.99
2019-05-26T02:13:50.377Z,99.99
2019-05-26T02:14:50.290Z,99.99
2019-05-26T02:15:50.204Z,99.99
2019-05-26T02:16:50.128Z,99.99
2019-05-26T02:17:50.041Z,99.99
2019-05-26T02:18:49.967Z,99.99
2019-05-26T02:19:49.878Z,99.99
2019-05-26T02:20:49.803Z,99.99
2019-05-26T02:21:49.717Z,99.99
2019-05-26T02:22:49.630Z,99.99
2019-05-26T02:23:49.567Z,99.99
2019-05-26T02:24:49.469Z,99.99
2019-05-26T02:25:49.394Z,99.99
2019-05-26T02:26:49.311Z,99.99
2019-05-26T02:27:49.232Z,99.99
2019-05-26T02:28:49.142Z,99.99
2019-05-26T02:29:49.055Z,99.99
2019-05-26T02:30:48.980Z,99.99
2019-05-26T02:31:48.892Z,99.99
2019-05-26T02:32:48.829Z,99.99
2019-05-26T02:33:48.730Z,99.99
2019-05-26T02:34:48.660Z,99.99
2019-05-26T02:35:48.662Z,99.99
2019-05-26T02:36:48.483Z,99.99
2019-05-26T02:37:48.406Z,99.99
2019-05-26T02:39:01.134Z,99.99
2019-05-26T02:39:48.243Z,99.99
2019-05-26T02:40:48.156Z,99.99
2019-05-26T02:41:48.081Z,99.99
2019-05-26T02:42:47.997Z,99.99
2019-05-26T02:43:47.907Z,99.99
2019-05-26T02:44:47.830Z,99.99
2019-05-26T02:45:47.744Z,99.99
2019-05-26T02:46:47.680Z,99.99
2019-05-26T02:47:47.583Z,99.99
2019-05-26T02:48:47.507Z,99.99
2019-05-26T02:49:47.420Z,99.99
2019-05-26T02:50:47.414Z,99.99
2019-05-26T02:51:47.257Z,99.99
2019-05-26T02:52:47.182Z,99.99
2019-05-26T02:53:47.094Z,99.99
2019-05-26T02:54:47.021Z,99.99
2019-05-26T02:55:46.929Z,99.99
2019-05-26T02:56:46.854Z,99.99
2019-05-26T02:57:46.765Z,99.99
2019-05-26T02:58:46.683Z,99.99
2019-05-26T02:59:46.595Z,99.99
2019-05-26T03:00:46.523Z,99.99
2019-05-26T03:02:02.235Z,99.99
2019-05-26T03:02:46.348Z,99.99
2019-05-26T03:03:46.278Z,99.99
2019-05-26T03:04:46.185Z,99.99
2019-05-26T03:05:46.109Z,99.99
2019-05-26T03:06:46.028Z,99.99
2019-05-26T03:07:45.946Z,99.99
2019-05-26T03:08:45.873Z,99.99
2019-05-26T03:09:45.772Z,99.99
2019-05-26T03:10:45.849Z,99.99
2019-05-26T03:11:45.609Z,99.99
2019-05-26T03:12:45.542Z,99.99
2019-05-26T03:13:45.450Z,99.99
2019-05-26T03:14:45.367Z,99.99
2019-05-26T03:15:45.285Z,99.99
2019-05-26T03:16:45.197Z,99.99
2019-05-26T03:17:45.115Z,99.99
2019-05-26T03:18:45.041Z,99.99
2019-05-26T03:19:44.949Z,99.99
2019-05-26T03:20:44.872Z,99.99
2019-05-26T03:21:44.799Z,99.99
2019-05-26T03:22:44.712Z,99.99
2019-05-26T03:23:44.629Z,99.99
2019-05-26T03:24:44.535Z,99.99
2019-05-26T03:25:44.461Z,99.99
2019-05-26T03:26:44.402Z,99.99
2019-05-26T03:27:44.300Z,99.99
2019-05-26T03:28:44.210Z,99.99
2019-05-26T03:29:44.138Z,99.99
2019-05-26T03:30:44.069Z,99.99
2019-05-26T03:31:43.966Z,99.99
2019-05-26T03:32:43.908Z,99.99
2019-05-26T03:33:43.810Z,99.99
2019-05-26T03:34:43.713Z,99.99
2019-05-26T03:35:43.637Z,99.99
2019-05-26T03:36:43.550Z,99.99
2019-05-26T03:37:43.476Z,99.99
2019-05-26T03:38:43.388Z,99.99
2019-05-26T03:39:45.899Z,99.99
2019-05-26T03:40:43.226Z,99.99
2019-05-26T03:41:43.138Z,99.99
2019-05-26T03:42:43.061Z,99.99
2019-05-26T03:43:42.976Z,99.99
2019-05-26T03:44:42.900Z,99.99
2019-05-26T03:45:42.830Z,99.99
2019-05-26T03:46:42.744Z,99.99
2019-05-26T03:47:42.652Z,99.99
2019-05-26T03:48:42.570Z,99.99
2019-05-26T03:49:42.488Z,99.99
2019-05-26T03:50:42.402Z,99.99
2019-05-26T03:51:42.328Z,99.99
2019-05-26T03:52:42.238Z,99.99
2019-05-26T03:53:42.157Z,99.99
2019-05-26T03:54:42.078Z,99.99
2019-05-26T03:55:41.990Z,99.99
2019-05-26T03:56:41.914Z,99.99
2019-05-26T03:57:41.827Z,99.99
2019-05-26T03:58:41.754Z,99.99
2019-05-26T03:59:41.678Z,99.99
2019-05-26T04:00:41.578Z,99.99
2019-05-26T04:01:41.505Z,99.99
2019-05-26T04:02:41.429Z,99.99
2019-05-26T04:03:41.352Z,99.99
2019-05-26T04:04:41.251Z,99.99
2019-05-26T04:05:41.166Z,99.99
2019-05-26T04:06:41.090Z,99.99
2019-05-26T04:07:41.003Z,99.99
2019-05-26T04:08:40.929Z,99.99
2019-05-26T04:09:40.840Z,99.99
2019-05-26T04:10:40.766Z,99.99
2019-05-26T04:11:40.679Z,99.99
2019-05-26T04:12:40.619Z,99.99
2019-05-26T04:13:40.539Z,99.99
2019-05-26T04:14:40.432Z,99.99
2019-05-26T04:15:40.354Z,99.99
2019-05-26T04:16:40.266Z,99.99
2019-05-26T04:17:40.205Z,99.99
2019-05-26T04:18:40.103Z,99.99
2019-05-26T04:19:40.029Z,99.99
2019-05-26T04:20:39.941Z,99.99
2019-05-26T04:21:39.866Z,99.99
2019-05-26T04:22:39.779Z,99.99
2019-05-26T04:23:39.706Z,99.99
2019-05-26T04:24:39.618Z,99.99
2019-05-26T04:25:39.529Z,99.99
2019-05-26T04:26:39.468Z,99.99
2019-05-26T04:27:39.366Z,99.99
2019-05-26T04:28:39.294Z,99.99
2019-05-26T04:29:39.208Z,99.99
2019-05-26T04:30:39.117Z,99.99
2019-05-26T04:31:39.043Z,99.99
2019-05-26T04:32:38.955Z,99.99
2019-05-26T04:33:38.882Z,99.99
2019-05-26T04:34:38.793Z,99.99
2019-05-26T04:35:38.724Z,99.99
2019-05-26T04:36:38.634Z,99.99
2019-05-26T04:37:38.554Z,99.99
2019-05-26T04:38:38.468Z,99.99
2019-05-26T04:39:38.381Z,99.99
2019-05-26T04:40:38.306Z,99.99
2019-05-26T04:41:38.227Z,99.99
2019-05-26T04:42:38.151Z,99.99
2019-05-26T04:43:38.057Z,99.99
2019-05-26T04:44:38.094Z,99.99
2019-05-26T04:45:37.893Z,99.99
2019-05-26T04:46:37.819Z,99.99
2019-05-26T04:47:37.739Z,99.99
2019-05-26T04:48:37.662Z,99.99
2019-05-26T04:49:37.922Z,99.99
2019-05-26T04:50:37.481Z,99.99
2019-05-26T04:51:37.442Z,99.99
2019-05-26T04:52:37.320Z,99.99
2019-05-26T04:53:37.245Z,99.99
2019-05-26T04:54:37.159Z,99.99
2019-05-26T04:55:37.083Z,99.99
2019-05-26T04:56:36.998Z,99.99
2019-05-26T04:57:36.924Z,99.99
2019-05-26T04:58:36.832Z,99.99
2019-05-26T04:59:36.763Z,99.99
2019-05-26T05:00:36.678Z,99.99
2019-05-26T05:01:36.609Z,99.99
2019-05-26T05:02:36.510Z,99.99
2019-05-26T05:03:36.423Z,99.99
2019-05-26T05:04:36.350Z,99.99
2019-05-26T05:05:36.259Z,99.99
2019-05-26T05:06:36.184Z,99.99
2019-05-26T05:07:36.097Z,99.99
2019-05-26T05:08:36.022Z,99.99
2019-05-26T05:09:35.934Z,99.99
2019-05-26T05:10:42.327Z,99.99
2019-05-26T05:11:35.776Z,99.99
2019-05-26T05:12:35.696Z,99.99
2019-05-26T05:13:35.609Z,99.99
2019-05-26T05:14:35.536Z,99.99
2019-05-26T05:15:35.447Z,99.99
2019-05-26T05:16:35.371Z,99.99
2019-05-26T05:17:35.291Z,99.99
2019-05-26T05:18:35.209Z,99.99
2019-05-26T05:19:35.123Z,99.99
2019-05-26T05:20:35.048Z,99.99
2019-05-26T05:21:34.962Z,99.99
2019-05-26T05:22:34.885Z,99.99
2019-05-26T05:23:34.797Z,99.99
2019-05-26T05:24:34.724Z,99.99
2019-05-26T05:25:34.636Z,99.99
2019-05-26T05:26:34.560Z,99.99
2019-05-26T05:27:34.485Z,99.99
2019-05-26T05:28:34.402Z,99.99
2019-05-26T05:29:34.310Z,99.99
2019-05-26T05:30:34.236Z,99.99
2019-05-26T05:31:34.148Z,99.99
2019-05-26T05:32:34.073Z,99.99
2019-05-26T05:33:33.986Z,99.99
2019-05-26T05:34:33.912Z,99.99
2019-05-26T05:35:33.823Z,99.99
2019-05-26T05:36:33.748Z,99.99
2019-05-26T05:37:33.673Z,99.99
2019-05-26T05:38:33.590Z,99.99
2019-05-26T05:39:33.504Z,99.99
2019-05-26T05:40:33.436Z,99.99
2019-05-26T05:41:33.338Z,99.99
2019-05-26T05:42:33.264Z,99.99
2019-05-26T05:43:33.174Z,99.99
2019-05-26T05:44:33.100Z,99.99
2019-05-26T05:45:33.013Z,99.99
2019-05-26T05:46:32.937Z,99.99
2019-05-26T05:47:32.855Z,98.94
2019-05-26T05:48:32.774Z,99.23
2019-05-26T05:49:32.699Z,98.94
2019-05-26T05:50:32.613Z,98.28
2019-05-26T05:51:32.539Z,98.71
2019-05-26T05:52:32.471Z,98.99
2019-05-26T05:53:32.376Z,98.23
2019-05-26T05:54:32.288Z,97.94
2019-05-26T05:55:32.213Z,97.85
2019-05-26T05:56:32.126Z,97.56
2019-05-26T05:57:32.051Z,97.66
2019-05-26T05:58:31.977Z,98.04
2019-05-26T05:59:31.890Z,97.94
2019-05-26T06:00:31.814Z,97.18
2019-05-26T06:01:31.726Z,97.37
2019-05-26T06:02:31.667Z,97.28
2019-05-26T06:03:31.565Z,96.80
2019-05-26T06:04:31.490Z,96.99
2019-05-26T06:05:31.418Z,96.89
2019-05-26T06:06:31.327Z,97.18
2019-05-26T06:07:31.255Z,96.61
2019-05-26T06:08:31.165Z,96.51
2019-05-26T06:09:31.092Z,96.42
2019-05-26T06:10:31.051Z,96.61
2019-05-26T06:11:30.927Z,96.13
2019-05-26T06:12:30.852Z,96.32
2019-05-26T06:13:30.765Z,96.13
2019-05-26T06:14:30.727Z,96.51
2019-05-26T06:15:30.615Z,96.84
2019-05-26T06:16:30.528Z,96.94
2019-05-26T06:17:30.546Z,96.47
2019-05-26T06:18:30.367Z,95.61
2019-05-26T06:19:30.298Z,95.51
2019-05-26T06:20:30.206Z,95.12
2019-05-26T06:21:30.128Z,95.41
2019-05-26T06:22:30.042Z,95.22
2019-05-26T06:23:29.966Z,95.41
2019-05-26T06:24:29.891Z,95.41
2019-05-26T06:25:29.811Z,95.07
2019-05-26T06:26:29.731Z,95.17
2019-05-26T06:27:29.649Z,94.41
2019-05-26T06:28:29.566Z,94.60
2019-05-26T06:29:29.537Z,94.31
2019-05-26T06:30:29.404Z,94.31
2019-05-26T06:31:29.330Z,94.21
2019-05-26T06:32:29.248Z,94.60
2019-05-26T06:33:29.168Z,94.41
2019-05-26T06:34:29.099Z,94.21
2019-05-26T06:35:32.474Z,94.70
2019-05-26T06:36:28.932Z,93.93
2019-05-26T06:37:28.843Z,93.55
2019-05-26T06:38:28.768Z,93.64
2019-05-26T06:39:28.695Z,93.07
2019-05-26T06:40:28.606Z,93.02
2019-05-26T06:41:33.407Z,92.59
2019-05-26T06:42:28.455Z,93.02
2019-05-26T06:43:28.371Z,93.12
2019-05-26T06:44:28.294Z,92.63
2019-05-26T06:45:28.208Z,91.87
2019-05-26T06:46:28.132Z,91.97
2019-05-26T06:47:28.057Z,90.91
2019-05-26T06:48:27.972Z,92.25
2019-05-26T06:49:27.895Z,91.30
2019-05-26T06:50:27.807Z,90.72
2019-05-26T06:51:27.732Z,90.58
2019-05-26T06:52:27.656Z,90.77
2019-05-26T06:53:27.570Z,89.62
2019-05-26T06:54:27.495Z,89.66
2019-05-26T06:55:27.420Z,89.37
2019-05-26T06:56:27.331Z,88.90
2019-05-26T06:57:27.258Z,88.61
2019-05-26T06:58:27.188Z,89.18
2019-05-26T06:59:27.096Z,87.31
2019-05-26T07:00:27.027Z,87.60
2019-05-26T07:01:26.945Z,87.70
2019-05-26T07:02:26.858Z,86.83
2019-05-26T07:03:26.787Z,87.79
2019-05-26T07:04:26.708Z,87.41
2019-05-26T07:05:26.621Z,85.88
2019-05-26T07:06:26.546Z,85.39
2019-05-26T07:07:26.471Z,84.91
2019-05-26T07:08:26.383Z,85.15
2019-05-26T07:09:26.346Z,84.34
2019-05-26T07:10:26.234Z,83.61
2019-05-26T07:11:26.146Z,83.81
2019-05-26T07:12:26.071Z,83.61
2019-05-26T07:13:26.002Z,83.81
2019-05-26T07:14:25.909Z,83.71
2019-05-26T07:15:25.841Z,83.08
2019-05-26T07:16:37.717Z,82.12
2019-05-26T07:17:25.697Z,81.54
2019-05-26T07:18:25.597Z,82.41
2019-05-26T07:19:25.527Z,81.41
2019-05-26T07:20:25.447Z,82.08
2019-05-26T07:21:25.375Z,82.46
2019-05-26T07:22:25.285Z,83.42
2019-05-26T07:23:25.210Z,83.27
2019-05-26T07:24:29.020Z,81.93
2019-05-26T07:25:25.059Z,81.45
2019-05-26T07:26:24.972Z,81.07
2019-05-26T07:27:24.898Z,81.49
2019-05-26T07:28:24.825Z,81.20
2019-05-26T07:29:24.749Z,80.01
2019-05-26T07:30:24.660Z,80.34
2019-05-26T07:31:24.591Z,80.15
2019-05-26T07:32:24.523Z,79.86
2019-05-26T07:33:24.435Z,80.53
2019-05-26T07:34:24.360Z,79.67
2019-05-26T07:35:24.274Z,80.53
2019-05-26T07:36:24.199Z,79.96
2019-05-26T07:37:24.123Z,79.42
2019-05-26T07:38:24.049Z,78.75
2019-05-26T07:39:23.975Z,78.75
2019-05-26T07:40:23.888Z,79.03
2019-05-26T07:41:23.812Z,78.84
2019-05-26T07:42:23.736Z,78.78
2019-05-26T07:43:27.226Z,78.21
2019-05-26T07:44:23.586Z,78.06
2019-05-26T07:45:23.514Z,78.34
2019-05-26T07:46:23.437Z,77.76
2019-05-26T07:47:23.350Z,76.04
2019-05-26T07:48:23.286Z,76.32
2019-05-26T07:49:23.200Z,76.32
2019-05-26T07:50:23.125Z,75.31
2019-05-26T07:51:23.050Z,75.84
2019-05-26T07:52:22.975Z,76.65
2019-05-26T07:53:22.903Z,75.07
2019-05-26T07:54:25.667Z,74.63
2019-05-26T07:55:22.739Z,73.99
2019-05-26T07:56:22.665Z,73.22
2019-05-26T07:57:22.588Z,73.13
2019-05-26T07:58:22.513Z,73.00
2019-05-26T07:59:22.438Z,74.05
2019-05-26T08:00:22.376Z,73.19
2019-05-26T08:01:24.345Z,72.38
2019-05-26T08:02:22.213Z,72.86
2019-05-26T08:03:22.139Z,73.15
2019-05-26T08:04:22.065Z,72.77
2019-05-26T08:05:21.989Z,72.77
2019-05-26T08:06:21.907Z,73.19
2019-05-26T08:07:23.211Z,72.96
2019-05-26T08:08:21.751Z,73.77
2019-05-26T08:09:21.677Z,74.63
2019-05-26T08:10:21.606Z,72.90
2019-05-26T08:11:21.528Z,74.34
2019-05-26T08:12:26.856Z,74.54
2019-05-26T08:13:21.380Z,74.30
2019-05-26T08:14:21.303Z,75.69
2019-05-26T08:15:21.231Z,74.92
2019-05-26T08:16:21.154Z,74.11
2019-05-26T08:17:21.078Z,74.11
2019-05-26T08:18:21.003Z,74.79
2019-05-26T08:19:20.916Z,74.11
2019-05-26T08:20:20.840Z,75.56
2019-05-26T08:21:20.765Z,74.63
2019-05-26T08:22:20.703Z,73.57
2019-05-26T08:23:20.616Z,73.35
2019-05-26T08:24:20.603Z,74.11
2019-05-26T08:25:20.466Z,75.46
2019-05-26T08:26:20.391Z,75.04
2019-05-26T08:27:20.317Z,74.69
2019-05-26T08:28:20.254Z,74.60
2019-05-26T08:29:20.166Z,73.77
2019-05-26T08:30:20.082Z,73.92
2019-05-26T08:31:20.004Z,73.83
2019-05-26T08:32:19.929Z,73.54
2019-05-26T08:33:19.857Z,74.40
2019-05-26T08:34:19.780Z,74.02
2019-05-26T08:35:19.704Z,72.80
2019-05-26T08:36:19.629Z,73.19
2019-05-26T08:37:19.556Z,73.28
2019-05-26T08:38:19.481Z,73.22
2019-05-26T08:39:19.405Z,71.88
2019-05-26T08:40:19.330Z,70.34
2019-05-26T08:41:19.256Z,69.89
2019-05-26T08:42:26.734Z,69.93
2019-05-26T08:43:19.094Z,70.21
2019-05-26T08:44:19.017Z,69.15
2019-05-26T08:45:21.460Z,68.68
2019-05-26T08:46:18.868Z,68.96
2019-05-26T08:47:18.793Z,69.29
2019-05-26T08:48:18.719Z,68.32
2019-05-26T08:49:18.646Z,67.84
2019-05-26T08:50:18.571Z,68.52
2019-05-26T08:51:18.494Z,67.84
2019-05-26T08:52:18.418Z,66.20
2019-05-26T08:53:18.344Z,65.33
2019-05-26T08:54:18.321Z,65.72
2019-05-26T08:55:18.193Z,65.81
2019-05-26T08:56:18.119Z,66.39
2019-05-26T08:57:18.044Z,65.98
2019-05-26T08:58:17.975Z,65.98
2019-05-26T08:59:17.894Z,67.19
2019-05-26T09:00:17.819Z,68.44
2019-05-26T09:01:17.744Z,67.77
2019-05-26T09:02:17.670Z,68.06
2019-05-26T09:03:17.595Z,67.81
2019-05-26T09:04:17.520Z,68.19
2019-05-26T09:05:17.446Z,68.19
2019-05-26T09:06:17.371Z,67.55
2019-05-26T09:07:17.299Z,65.59
2019-05-26T09:08:17.233Z,65.72
2019-05-26T09:09:17.147Z,64.92
2019-05-26T09:10:17.075Z,65.69
2019-05-26T09:11:16.995Z,66.20
2019-05-26T09:12:16.934Z,65.14
2019-05-26T09:13:16.846Z,64.21
2019-05-26T09:14:16.771Z,63.89
2019-05-26T09:15:16.696Z,63.79
2019-05-26T09:16:16.634Z,64.40
2019-05-26T09:17:16.547Z,63.92
2019-05-26T09:18:16.473Z,63.28
2019-05-26T09:19:16.409Z,62.89
2019-05-26T09:20:16.335Z,61.67
2019-05-26T09:21:16.261Z,61.47
2019-05-26T09:22:16.184Z,61.38
2019-05-26T09:23:16.114Z,61.38
2019-05-26T09:24:16.035Z,61.35
2019-05-26T09:25:15.960Z,61.74
2019-05-26T09:26:15.887Z,61.06
2019-05-26T09:27:15.822Z,61.32
2019-05-26T09:28:15.760Z,61.96
2019-05-26T09:29:15.672Z,62.63
2019-05-26T09:30:15.597Z,63.21
2019-05-26T09:31:15.523Z,62.73
2019-05-26T09:32:15.448Z,62.86
2019-05-26T09:33:15.374Z,63.79
2019-05-26T09:34:15.299Z,63.70
2019-05-26T09:35:15.237Z,63.54
2019-05-26T09:36:15.161Z,62.96
2019-05-26T09:37:15.086Z,63.63
2019-05-26T09:38:15.012Z,63.82
2019-05-26T09:39:14.937Z,64.31
2019-05-26T09:40:14.861Z,63.60
2019-05-26T09:41:14.788Z,63.98
2019-05-26T09:42:14.712Z,63.73
2019-05-26T09:43:16.605Z,64.02
2019-05-26T09:44:14.576Z,64.02
2019-05-26T09:45:14.519Z,63.06
2019-05-26T09:46:14.424Z,62.38
2019-05-26T09:47:14.349Z,62.76
2019-05-26T09:48:14.276Z,63.31
2019-05-26T09:49:14.199Z,63.89
2019-05-26T09:50:14.124Z,62.96
2019-05-26T09:51:14.051Z,62.48
2019-05-26T09:52:13.975Z,62.73
2019-05-26T09:53:13.901Z,63.63
2019-05-26T09:54:13.830Z,62.96
2019-05-26T09:55:13.754Z,62.57
2019-05-26T09:56:13.676Z,62.66
2019-05-26T09:57:13.603Z,62.54
2019-05-26T09:58:13.540Z,62.86
2019-05-26T09:59:13.464Z,62.48
2019-05-26T10:00:16.083Z,62.28
2019-05-26T10:01:13.314Z,62.02
2019-05-26T10:02:13.240Z,61.25
2019-05-26T10:03:13.168Z,61.35
2019-05-26T10:04:13.089Z,61.74
2019-05-26T10:05:13.015Z,62.31
2019-05-26T10:06:12.939Z,61.35
2019-05-26T10:07:15.808Z,62.02
2019-05-26T10:08:12.789Z,61.41
2019-05-26T10:09:12.714Z,63.02
2019-05-26T10:10:12.644Z,60.80
2019-05-26T10:11:12.569Z,61.16
2019-05-26T10:12:12.489Z,61.16
2019-05-26T10:13:12.416Z,61.44
2019-05-26T10:14:12.341Z,61.09
2019-05-26T10:15:12.267Z,60.99
2019-05-26T10:16:12.195Z,61.86
2019-05-26T10:17:12.115Z,60.89
2019-05-26T10:18:12.101Z,61.57
2019-05-26T10:19:11.966Z,61.74
2019-05-26T10:20:11.903Z,61.93
2019-05-26T10:21:11.828Z,62.60
2019-05-26T10:22:11.752Z,62.02
2019-05-26T10:23:11.679Z,60.96
2019-05-26T10:24:11.604Z,60.86
2019-05-26T10:25:11.536Z,61.16
2019-05-26T10:26:11.454Z,62.22
2019-05-26T10:27:11.394Z,61.54
2019-05-26T10:28:11.305Z,61.16
2019-05-26T10:29:11.229Z,60.96
2019-05-26T10:30:11.155Z,60.86
2019-05-26T10:31:11.081Z,61.06
2019-05-26T10:32:11.013Z,60.96
2019-05-26T10:33:10.929Z,60.96
2019-05-26T10:34:13.630Z,61.09
2019-05-26T10:35:10.781Z,61.47
2019-05-26T10:36:10.706Z,61.54
2019-05-26T10:37:10.631Z,60.71
2019-05-26T10:38:10.568Z,61.28
2019-05-26T10:39:10.492Z,61.57
2019-05-26T10:40:10.418Z,61.51
2019-05-26T10:41:10.344Z,60.73
2019-05-26T10:42:10.268Z,61.02
2019-05-26T10:43:10.194Z,60.25
2019-05-26T10:44:10.119Z,60.44
2019-05-26T10:45:10.043Z,60.16
2019-05-26T10:46:09.969Z,59.58
2019-05-26T10:47:09.894Z,59.51
2019-05-26T10:48:09.821Z,58.06
2019-05-26T10:49:09.749Z,57.60
2019-05-26T10:50:09.682Z,57.41
2019-05-26T10:51:09.607Z,56.79
2019-05-26T10:52:09.531Z,56.09
2019-05-26T10:53:09.457Z,57.03
2019-05-26T10:54:09.382Z,56.73
2019-05-26T10:55:09.321Z,56.71
2019-05-26T10:56:09.244Z,56.93
2019-05-26T10:57:09.182Z,56.93
2019-05-26T10:58:09.095Z,56.88
2019-05-26T10:59:09.032Z,55.30
2019-05-26T11:00:08.962Z,53.75
2019-05-26T11:01:08.883Z,53.55
2019-05-26T11:02:08.809Z,54.13
2019-05-26T11:03:08.746Z,53.26
2019-05-26T11:04:08.732Z,53.45
2019-05-26T11:05:08.609Z,54.75
2019-05-26T11:06:08.533Z,54.75
2019-05-26T11:07:08.458Z,55.47
2019-05-26T11:08:08.397Z,55.70
2019-05-26T11:09:08.321Z,55.77
2019-05-26T11:10:08.259Z,56.99
2019-05-26T11:11:08.183Z,57.77
2019-05-26T11:12:08.134Z,56.80
2019-05-26T11:13:08.046Z,57.74
2019-05-26T11:14:07.973Z,57.87
2019-05-26T11:15:07.948Z,57.77
2019-05-26T11:16:07.834Z,57.96
2019-05-26T11:17:07.775Z,57.96
2019-05-26T11:18:07.684Z,57.96
2019-05-26T11:19:07.628Z,57.87
2019-05-26T11:20:07.547Z,57.09
2019-05-26T11:21:07.473Z,57.12
2019-05-26T11:22:07.400Z,57.51
2019-05-26T11:23:07.335Z,57.87
2019-05-26T11:24:07.260Z,58.06
2019-05-26T11:25:07.185Z,58.06
2019-05-26T11:26:07.110Z,58.51
2019-05-26T11:27:11.701Z,58.97
2019-05-26T11:28:06.974Z,59.35
2019-05-26T11:29:06.898Z,60.22
2019-05-26T11:30:06.823Z,60.61
2019-05-26T11:31:06.760Z,60.77
2019-05-26T11:32:06.699Z,59.42
2019-05-26T11:33:06.616Z,60.28
2019-05-26T11:34:06.608Z,59.32
2019-05-26T11:35:06.460Z,59.61
2019-05-26T11:36:06.398Z,59.52
2019-05-26T11:37:06.312Z,59.74
2019-05-26T11:38:06.238Z,59.45
2019-05-26T11:39:06.180Z,59.16
2019-05-26T11:40:06.103Z,57.96
2019-05-26T11:41:06.025Z,57.31
2019-05-26T11:42:13.202Z,56.09
2019-05-26T11:43:16.492Z,56.95
2019-05-26T11:44:17.454Z,56.30
2019-05-26T11:45:05.725Z,55.92
2019-05-26T11:46:05.664Z,54.79
2019-05-26T11:47:05.603Z,54.33
2019-05-26T11:48:05.512Z,54.16
2019-05-26T11:49:05.439Z,52.61
2019-05-26T11:50:05.363Z,53.55
2019-05-26T11:51:05.303Z,53.81
2019-05-26T11:52:05.239Z,54.30
2019-05-26T11:53:05.162Z,55.07
2019-05-26T11:54:05.075Z,55.56
2019-05-26T11:55:05.013Z,54.75
2019-05-26T11:56:04.937Z,55.34
2019-05-26T11:57:04.865Z,56.63
2019-05-26T11:58:04.802Z,56.51
2019-05-26T11:59:04.728Z,57.77
2019-05-26T12:00:04.698Z,57.38
2019-05-26T12:01:04.577Z,58.06
2019-05-26T12:02:04.518Z,58.12
2019-05-26T12:03:04.446Z,58.03
2019-05-26T12:04:04.368Z,57.77
2019-05-26T12:05:04.289Z,58.25
2019-05-26T12:06:04.229Z,58.18
2019-05-26T12:07:04.633Z,57.03
2019-05-26T12:08:04.077Z,56.88
2019-05-26T12:09:04.003Z,56.02
2019-05-26T12:10:03.928Z,54.66
2019-05-26T12:11:03.864Z,55.73
2019-05-26T12:12:03.789Z,54.66
2019-05-26T12:13:03.717Z,54.47
2019-05-26T12:14:03.640Z,53.99
2019-05-26T12:15:03.578Z,55.53
2019-05-26T12:16:03.508Z,55.43
2019-05-26T12:17:03.428Z,56.11
2019-05-26T12:18:03.353Z,55.02
2019-05-26T12:19:03.291Z,55.41
2019-05-26T12:20:05.287Z,55.51
2019-05-26T12:21:03.140Z,54.73
2019-05-26T12:22:03.100Z,54.99
2019-05-26T12:23:03.062Z,55.16
2019-05-26T12:24:02.935Z,55.71
2019-05-26T12:25:02.865Z,56.32
2019-05-26T12:26:02.781Z,56.99
2019-05-26T12:27:02.716Z,57.29
2019-05-26T12:28:02.650Z,56.63
2019-05-26T12:29:02.566Z,56.05
2019-05-26T12:30:02.494Z,55.74
2019-05-26T12:31:02.419Z,56.05
2019-05-26T12:32:02.360Z,56.90
2019-05-26T12:33:02.289Z,56.51
2019-05-26T12:34:02.207Z,56.51
2019-05-26T12:35:02.138Z,56.77
2019-05-26T12:36:02.054Z,56.90
2019-05-26T12:37:01.981Z,57.87
2019-05-26T12:38:01.917Z,57.57
2019-05-26T12:39:01.844Z,57.51
2019-05-26T12:40:01.783Z,56.63
2019-05-26T12:41:01.692Z,56.86
2019-05-26T12:42:01.623Z,57.05
2019-05-26T12:43:01.543Z,56.67
2019-05-26T12:44:01.474Z,55.99
2019-05-26T12:45:01.407Z,55.55
2019-05-26T12:46:01.334Z,56.05
2019-05-26T12:47:01.269Z,56.25
2019-05-26T12:48:01.182Z,56.99
2019-05-26T12:49:01.107Z,57.12
2019-05-26T12:50:01.040Z,56.63
2019-05-26T12:51:00.956Z,56.86